sensor_id;sensor_type;location;lat;lon;timestamp;P1;durP1;ratioP1;P2;durP2;ratioP2
50291;SDS011;36190;54.980;73.388;2023-04-24T00:02:13;15.50;;;5.05;;
50291;SDS011;36190;54.980;73.388;2023-04-24T00:04:41;13.02;;;5.05;;
50291;SDS011;36190;54.980;73.388;2023-04-24T00:07:11;14.25;;;5.10;;
50291;SDS011;36190;54.980;73.388;2023-04-24T00:09:39;10.23;;;4.78;;
50291;SDS011;36190;54.980;73.388;2023-04-24T00:12:07;11.38;;;4.63;;
50291;SDS011;36190;54.980;73.388;2023-04-24T00:14:35;13.10;;;6.38;;
50291;SDS011;36190;54.980;73.388;2023-04-24T00:17:02;12.07;;;5.32;;
50291;SDS011;36190;54.980;73.388;2023-04-24T00:19:31;11.77;;;5.10;;
50291;SDS011;36190;54.980;73.388;2023-04-24T00:21:58;12.02;;;5.35;;
50291;SDS011;36190;54.980;73.388;2023-04-24T00:24:26;12.63;;;5.30;;
50291;SDS011;36190;54.980;73.388;2023-04-24T00:26:53;11.05;;;5.40;;
50291;SDS011;36190;54.980;73.388;2023-04-24T00:29:21;14.18;;;5.65;;
50291;SDS011;36190;54.980;73.388;2023-04-24T00:31:48;12.40;;;5.32;;
50291;SDS011;36190;54.980;73.388;2023-04-24T00:34:16;13.18;;;5.25;;
50291;SDS011;36190;54.980;73.388;2023-04-24T00:36:45;15.02;;;5.95;;
50291;SDS011;36190;54.980;73.388;2023-04-24T00:39:14;14.95;;;6.05;;
50291;SDS011;36190;54.980;73.388;2023-04-24T00:41:41;11.18;;;5.60;;
50291;SDS011;36190;54.980;73.388;2023-04-24T00:44:10;14.65;;;6.60;;
50291;SDS011;36190;54.980;73.388;2023-04-24T00:46:38;15.80;;;8.88;;
50291;SDS011;36190;54.980;73.388;2023-04-24T00:49:05;15.18;;;9.10;;
50291;SDS011;36190;54.980;73.388;2023-04-24T00:51:33;14.07;;;7.35;;
50291;SDS011;36190;54.980;73.388;2023-04-24T00:54:03;15.00;;;6.75;;
50291;SDS011;36190;54.980;73.388;2023-04-24T00:56:30;15.95;;;6.70;;
50291;SDS011;36190;54.980;73.388;2023-04-24T00:58:58;13.60;;;6.30;;
50291;SDS011;36190;54.980;73.388;2023-04-24T01:01:26;22.27;;;6.50;;
50291;SDS011;36190;54.980;73.388;2023-04-24T01:03:53;18.77;;;6.68;;
50291;SDS011;36190;54.980;73.388;2023-04-24T01:06:21;18.58;;;6.18;;
50291;SDS011;36190;54.980;73.388;2023-04-24T01:08:50;18.63;;;7.18;;
50291;SDS011;36190;54.980;73.388;2023-04-24T01:11:19;24.63;;;7.00;;
50291;SDS011;36190;54.980;73.388;2023-04-24T01:13:48;21.90;;;7.50;;
50291;SDS011;36190;54.980;73.388;2023-04-24T01:16:15;18.52;;;9.23;;
50291;SDS011;36190;54.980;73.388;2023-04-24T01:18:45;23.70;;;11.50;;
50291;SDS011;36190;54.980;73.388;2023-04-24T01:21:14;26.08;;;15.63;;
50291;SDS011;36190;54.980;73.388;2023-04-24T01:23:44;28.15;;;13.73;;
50291;SDS011;36190;54.980;73.388;2023-04-24T01:26:12;24.77;;;13.18;;
50291;SDS011;36190;54.980;73.388;2023-04-24T01:28:41;24.55;;;12.10;;
50291;SDS011;36190;54.980;73.388;2023-04-24T01:31:09;22.90;;;11.20;;
50291;SDS011;36190;54.980;73.388;2023-04-24T01:33:36;16.20;;;9.32;;
50291;SDS011;36190;54.980;73.388;2023-04-24T01:36:04;19.17;;;9.63;;
50291;SDS011;36190;54.980;73.388;2023-04-24T01:38:32;17.90;;;7.65;;
50291;SDS011;36190;54.980;73.388;2023-04-24T01:41:01;17.67;;;7.10;;
50291;SDS011;36190;54.980;73.388;2023-04-24T01:43:29;15.30;;;7.10;;
50291;SDS011;36190;54.980;73.388;2023-04-24T01:45:57;15.00;;;6.13;;
50291;SDS011;36190;54.980;73.388;2023-04-24T01:48:24;13.57;;;6.80;;
50291;SDS011;36190;54.980;73.388;2023-04-24T01:50:52;16.50;;;7.07;;
50291;SDS011;36190;54.980;73.388;2023-04-24T01:53:19;18.05;;;7.47;;
50291;SDS011;36190;54.980;73.388;2023-04-24T01:55:47;18.20;;;5.82;;
50291;SDS011;36190;54.980;73.388;2023-04-24T01:58:16;15.80;;;6.63;;
50291;SDS011;36190;54.980;73.388;2023-04-24T02:00:43;14.80;;;5.32;;
50291;SDS011;36190;54.980;73.388;2023-04-24T02:03:11;16.02;;;5.95;;
50291;SDS011;36190;54.980;73.388;2023-04-24T02:05:38;14.10;;;5.80;;
50291;SDS011;36190;54.980;73.388;2023-04-24T02:08:06;11.45;;;5.80;;
50291;SDS011;36190;54.980;73.388;2023-04-24T02:10:33;18.27;;;5.78;;
50291;SDS011;36190;54.980;73.388;2023-04-24T02:13:01;13.02;;;6.20;;
50291;SDS011;36190;54.980;73.388;2023-04-24T02:15:30;12.93;;;5.45;;
50291;SDS011;36190;54.980;73.388;2023-04-24T02:17:58;15.93;;;6.22;;
50291;SDS011;36190;54.980;73.388;2023-04-24T02:20:25;13.98;;;5.93;;
50291;SDS011;36190;54.980;73.388;2023-04-24T02:22:53;15.80;;;5.95;;
50291;SDS011;36190;54.980;73.388;2023-04-24T02:25:20;16.33;;;6.25;;
50291;SDS011;36190;54.980;73.388;2023-04-24T02:27:48;17.92;;;6.30;;
50291;SDS011;36190;54.980;73.388;2023-04-24T02:30:16;14.23;;;6.30;;
50291;SDS011;36190;54.980;73.388;2023-04-24T02:32:45;12.98;;;6.05;;
50291;SDS011;36190;54.980;73.388;2023-04-24T02:35:12;16.85;;;6.47;;
50291;SDS011;36190;54.980;73.388;2023-04-24T02:37:40;21.17;;;7.35;;
50291;SDS011;36190;54.980;73.388;2023-04-24T02:40:08;17.42;;;7.00;;
50291;SDS011;36190;54.980;73.388;2023-04-24T02:42:36;17.77;;;6.65;;
50291;SDS011;36190;54.980;73.388;2023-04-24T02:45:03;23.90;;;7.72;;
50291;SDS011;36190;54.980;73.388;2023-04-24T02:47:32;13.05;;;6.13;;
50291;SDS011;36190;54.980;73.388;2023-04-24T02:50:00;21.67;;;7.55;;
50291;SDS011;36190;54.980;73.388;2023-04-24T02:52:28;19.85;;;6.85;;
50291;SDS011;36190;54.980;73.388;2023-04-24T02:54:56;14.95;;;6.78;;
50291;SDS011;36190;54.980;73.388;2023-04-24T02:57:23;17.83;;;7.53;;
50291;SDS011;36190;54.980;73.388;2023-04-24T02:59:51;27.42;;;8.05;;
50291;SDS011;36190;54.980;73.388;2023-04-24T03:02:18;20.25;;;7.13;;
50291;SDS011;36190;54.980;73.388;2023-04-24T03:04:46;24.40;;;11.40;;
50291;SDS011;36190;54.980;73.388;2023-04-24T03:07:15;22.13;;;6.82;;
50291;SDS011;36190;54.980;73.388;2023-04-24T03:09:46;21.42;;;7.28;;
50291;SDS011;36190;54.980;73.388;2023-04-24T03:12:13;22.42;;;6.70;;
50291;SDS011;36190;54.980;73.388;2023-04-24T03:14:43;21.20;;;7.22;;
50291;SDS011;36190;54.980;73.388;2023-04-24T03:17:10;20.35;;;7.53;;
50291;SDS011;36190;54.980;73.388;2023-04-24T03:19:38;14.50;;;6.15;;
50291;SDS011;36190;54.980;73.388;2023-04-24T03:22:06;17.15;;;6.97;;
50291;SDS011;36190;54.980;73.388;2023-04-24T03:24:35;22.27;;;7.80;;
50291;SDS011;36190;54.980;73.388;2023-04-24T03:27:03;21.33;;;7.75;;
50291;SDS011;36190;54.980;73.388;2023-04-24T03:29:30;24.17;;;7.60;;
50291;SDS011;36190;54.980;73.388;2023-04-24T03:31:58;17.90;;;6.68;;
50291;SDS011;36190;54.980;73.388;2023-04-24T03:34:25;19.02;;;6.78;;
50291;SDS011;36190;54.980;73.388;2023-04-24T03:36:53;16.88;;;6.50;;
50291;SDS011;36190;54.980;73.388;2023-04-24T03:39:20;17.77;;;6.90;;
50291;SDS011;36190;54.980;73.388;2023-04-24T03:41:49;17.00;;;7.13;;
50291;SDS011;36190;54.980;73.388;2023-04-24T03:44:17;18.73;;;7.43;;
50291;SDS011;36190;54.980;73.388;2023-04-24T03:46:44;21.73;;;7.45;;
50291;SDS011;36190;54.980;73.388;2023-04-24T03:49:11;17.38;;;7.68;;
50291;SDS011;36190;54.980;73.388;2023-04-24T03:51:39;20.40;;;8.20;;
50291;SDS011;36190;54.980;73.388;2023-04-24T03:54:06;22.88;;;9.13;;
50291;SDS011;36190;54.980;73.388;2023-04-24T03:56:34;18.67;;;8.18;;
50291;SDS011;36190;54.980;73.388;2023-04-24T03:59:03;22.60;;;8.07;;
50291;SDS011;36190;54.980;73.388;2023-04-24T04:01:31;19.27;;;7.75;;
50291;SDS011;36190;54.980;73.388;2023-04-24T04:04:01;21.33;;;7.60;;
50291;SDS011;36190;54.980;73.388;2023-04-24T04:06:29;25.67;;;8.02;;
50291;SDS011;36190;54.980;73.388;2023-04-24T04:08:57;24.00;;;8.30;;
50291;SDS011;36190;54.980;73.388;2023-04-24T04:11:25;17.48;;;7.18;;
50291;SDS011;36190;54.980;73.388;2023-04-24T04:13:52;17.98;;;7.68;;
50291;SDS011;36190;54.980;73.388;2023-04-24T04:16:22;22.02;;;7.82;;
50291;SDS011;36190;54.980;73.388;2023-04-24T04:18:49;18.83;;;7.20;;
50291;SDS011;36190;54.980;73.388;2023-04-24T04:21:17;19.08;;;7.53;;
50291;SDS011;36190;54.980;73.388;2023-04-24T04:23:44;26.40;;;8.70;;
50291;SDS011;36190;54.980;73.388;2023-04-24T04:26:12;22.55;;;8.05;;
50291;SDS011;36190;54.980;73.388;2023-04-24T04:28:39;23.02;;;8.85;;
50291;SDS011;36190;54.980;73.388;2023-04-24T04:31:07;17.05;;;8.13;;
50291;SDS011;36190;54.980;73.388;2023-04-24T04:33:36;17.33;;;7.38;;
50291;SDS011;36190;54.980;73.388;2023-04-24T04:36:04;19.45;;;7.80;;
50291;SDS011;36190;54.980;73.388;2023-04-24T04:38:33;15.68;;;6.82;;
50291;SDS011;36190;54.980;73.388;2023-04-24T04:41:00;18.63;;;8.07;;
50291;SDS011;36190;54.980;73.388;2023-04-24T04:43:28;22.60;;;7.28;;
50291;SDS011;36190;54.980;73.388;2023-04-24T04:45:57;12.90;;;5.85;;
50291;SDS011;36190;54.980;73.388;2023-04-24T04:48:25;18.27;;;7.07;;
50291;SDS011;36190;54.980;73.388;2023-04-24T04:50:55;16.65;;;6.70;;
50291;SDS011;36190;54.980;73.388;2023-04-24T04:53:22;20.60;;;7.10;;
50291;SDS011;36190;54.980;73.388;2023-04-24T04:55:50;14.35;;;5.88;;
50291;SDS011;36190;54.980;73.388;2023-04-24T04:58:17;15.75;;;6.10;;
50291;SDS011;36190;54.980;73.388;2023-04-24T05:00:45;17.98;;;6.72;;
50291;SDS011;36190;54.980;73.388;2023-04-24T05:03:12;20.15;;;7.43;;
50291;SDS011;36190;54.980;73.388;2023-04-24T05:05:40;18.90;;;6.03;;
50291;SDS011;36190;54.980;73.388;2023-04-24T05:08:09;16.60;;;6.25;;
50291;SDS011;36190;54.980;73.388;2023-04-24T05:10:36;17.15;;;5.38;;
50291;SDS011;36190;54.980;73.388;2023-04-24T05:13:04;13.00;;;6.03;;
50291;SDS011;36190;54.980;73.388;2023-04-24T05:15:31;12.63;;;5.80;;
50291;SDS011;36190;54.980;73.388;2023-04-24T05:17:59;16.05;;;6.53;;
50291;SDS011;36190;54.980;73.388;2023-04-24T05:20:26;15.55;;;5.88;;
50291;SDS011;36190;54.980;73.388;2023-04-24T05:22:54;13.80;;;5.28;;
50291;SDS011;36190;54.980;73.388;2023-04-24T05:25:23;14.00;;;5.53;;
50291;SDS011;36190;54.980;73.388;2023-04-24T05:27:50;16.08;;;5.25;;
50291;SDS011;36190;54.980;73.388;2023-04-24T05:30:18;13.48;;;5.53;;
50291;SDS011;36190;54.980;73.388;2023-04-24T05:32:46;14.02;;;5.95;;
50291;SDS011;36190;54.980;73.388;2023-04-24T05:35:14;14.25;;;6.07;;
50291;SDS011;36190;54.980;73.388;2023-04-24T05:37:41;13.73;;;6.05;;
50291;SDS011;36190;54.980;73.388;2023-04-24T05:40:09;13.02;;;5.50;;
50291;SDS011;36190;54.980;73.388;2023-04-24T05:42:38;11.75;;;5.45;;
50291;SDS011;36190;54.980;73.388;2023-04-24T05:45:06;14.27;;;5.38;;
50291;SDS011;36190;54.980;73.388;2023-04-24T05:47:36;10.35;;;4.95;;
50291;SDS011;36190;54.980;73.388;2023-04-24T05:50:04;8.63;;;4.82;;
50291;SDS011;36190;54.980;73.388;2023-04-24T05:52:32;12.30;;;4.85;;
50291;SDS011;36190;54.980;73.388;2023-04-24T05:55:00;13.50;;;4.75;;
50291;SDS011;36190;54.980;73.388;2023-04-24T05:57:27;16.42;;;5.18;;
50291;SDS011;36190;54.980;73.388;2023-04-24T05:59:56;11.95;;;4.95;;
50291;SDS011;36190;54.980;73.388;2023-04-24T06:02:24;12.70;;;4.97;;
50291;SDS011;36190;54.980;73.388;2023-04-24T06:04:52;11.48;;;5.45;;
50291;SDS011;36190;54.980;73.388;2023-04-24T06:07:20;17.38;;;6.85;;
50291;SDS011;36190;54.980;73.388;2023-04-24T06:09:48;17.30;;;7.95;;
50291;SDS011;36190;54.980;73.388;2023-04-24T06:12:15;20.20;;;8.38;;
50291;SDS011;36190;54.980;73.388;2023-04-24T06:14:43;15.75;;;7.45;;
50291;SDS011;36190;54.980;73.388;2023-04-24T06:17:12;21.48;;;9.27;;
50291;SDS011;36190;54.980;73.388;2023-04-24T06:19:39;27.95;;;10.52;;
50291;SDS011;36190;54.980;73.388;2023-04-24T06:22:07;17.27;;;8.68;;
50291;SDS011;36190;54.980;73.388;2023-04-24T06:24:35;22.17;;;9.55;;
50291;SDS011;36190;54.980;73.388;2023-04-24T06:27:02;23.92;;;9.38;;
50291;SDS011;36190;54.980;73.388;2023-04-24T06:29:29;15.75;;;6.57;;
50291;SDS011;36190;54.980;73.388;2023-04-24T06:31:58;14.82;;;6.47;;
50291;SDS011;36190;54.980;73.388;2023-04-24T06:34:27;12.77;;;4.47;;
50291;SDS011;36190;54.980;73.388;2023-04-24T06:36:56;15.82;;;5.63;;
50291;SDS011;36190;54.980;73.388;2023-04-24T06:39:23;16.65;;;6.18;;
50291;SDS011;36190;54.980;73.388;2023-04-24T06:41:50;20.42;;;7.05;;
50291;SDS011;36190;54.980;73.388;2023-04-24T06:44:18;20.60;;;7.63;;
50291;SDS011;36190;54.980;73.388;2023-04-24T06:46:45;25.15;;;8.77;;
50291;SDS011;36190;54.980;73.388;2023-04-24T06:49:13;16.50;;;7.65;;
50291;SDS011;36190;54.980;73.388;2023-04-24T06:51:47;18.70;;;6.45;;
50291;SDS011;36190;54.980;73.388;2023-04-24T06:54:15;18.60;;;6.30;;
50291;SDS011;36190;54.980;73.388;2023-04-24T06:56:42;12.50;;;4.25;;
50291;SDS011;36190;54.980;73.388;2023-04-24T06:59:11;12.15;;;4.97;;
50291;SDS011;36190;54.980;73.388;2023-04-24T07:01:38;13.90;;;5.75;;
50291;SDS011;36190;54.980;73.388;2023-04-24T07:04:06;15.60;;;5.50;;
50291;SDS011;36190;54.980;73.388;2023-04-24T07:06:33;15.65;;;5.18;;
50291;SDS011;36190;54.980;73.388;2023-04-24T07:09:04;20.25;;;5.95;;
50291;SDS011;36190;54.980;73.388;2023-04-24T07:11:31;15.27;;;5.13;;
50291;SDS011;36190;54.980;73.388;2023-04-24T07:13:59;22.67;;;6.95;;
50291;SDS011;36190;54.980;73.388;2023-04-24T07:16:30;34.83;;;8.18;;
50291;SDS011;36190;54.980;73.388;2023-04-24T07:19:15;35.13;;;8.43;;
50291;SDS011;36190;54.980;73.388;2023-04-24T07:21:42;22.02;;;7.25;;
50291;SDS011;36190;54.980;73.388;2023-04-24T07:24:14;15.95;;;5.70;;
50291;SDS011;36190;54.980;73.388;2023-04-24T07:26:45;15.93;;;5.45;;
50291;SDS011;36190;54.980;73.388;2023-04-24T07:29:13;82.53;;;10.10;;
50291;SDS011;36190;54.980;73.388;2023-04-24T07:31:51;19.77;;;5.65;;
50291;SDS011;36190;54.980;73.388;2023-04-24T07:34:19;23.77;;;5.95;;
50291;SDS011;36190;54.980;73.388;2023-04-24T07:36:46;25.13;;;8.77;;
50291;SDS011;36190;54.980;73.388;2023-04-24T07:39:15;19.20;;;5.60;;
50291;SDS011;36190;54.980;73.388;2023-04-24T07:41:43;14.43;;;5.25;;
50291;SDS011;36190;54.980;73.388;2023-04-24T07:44:10;14.95;;;5.28;;
50291;SDS011;36190;54.980;73.388;2023-04-24T07:46:38;15.02;;;5.40;;
50291;SDS011;36190;54.980;73.388;2023-04-24T07:49:05;18.33;;;6.75;;
50291;SDS011;36190;54.980;73.388;2023-04-24T07:51:33;15.95;;;6.88;;
50291;SDS011;36190;54.980;73.388;2023-04-24T07:54:03;24.13;;;8.80;;
50291;SDS011;36190;54.980;73.388;2023-04-24T07:56:33;19.63;;;7.15;;
50291;SDS011;36190;54.980;73.388;2023-04-24T07:59:04;20.05;;;6.18;;
50291;SDS011;36190;54.980;73.388;2023-04-24T08:01:31;14.20;;;5.40;;
50291;SDS011;36190;54.980;73.388;2023-04-24T08:03:59;24.00;;;7.03;;
50291;SDS011;36190;54.980;73.388;2023-04-24T08:06:26;20.38;;;8.40;;
50291;SDS011;36190;54.980;73.388;2023-04-24T08:08:55;33.60;;;10.55;;
50291;SDS011;36190;54.980;73.388;2023-04-24T08:11:23;36.15;;;9.68;;
50291;SDS011;36190;54.980;73.388;2023-04-24T08:13:51;40.90;;;11.27;;
50291;SDS011;36190;54.980;73.388;2023-04-24T08:16:19;24.40;;;8.25;;
50291;SDS011;36190;54.980;73.388;2023-04-24T08:18:48;21.00;;;7.03;;
50291;SDS011;36190;54.980;73.388;2023-04-24T08:21:16;27.80;;;9.00;;
50291;SDS011;36190;54.980;73.388;2023-04-24T08:23:44;25.13;;;8.60;;
50291;SDS011;36190;54.980;73.388;2023-04-24T08:26:11;16.42;;;6.55;;
50291;SDS011;36190;54.980;73.388;2023-04-24T08:28:39;10.40;;;5.13;;
50291;SDS011;36190;54.980;73.388;2023-04-24T08:31:08;10.35;;;4.30;;
50291;SDS011;36190;54.980;73.388;2023-04-24T08:33:35;9.15;;;3.95;;
50291;SDS011;36190;54.980;73.388;2023-04-24T08:36:03;8.38;;;3.70;;
50291;SDS011;36190;54.980;73.388;2023-04-24T08:38:32;15.88;;;5.07;;
50291;SDS011;36190;54.980;73.388;2023-04-24T08:41:00;17.52;;;5.93;;
50291;SDS011;36190;54.980;73.388;2023-04-24T08:43:29;23.23;;;7.03;;
50291;SDS011;36190;54.980;73.388;2023-04-24T08:45:59;25.20;;;8.45;;
50291;SDS011;36190;54.980;73.388;2023-04-24T08:48:29;21.33;;;7.18;;
50291;SDS011;36190;54.980;73.388;2023-04-24T08:50:57;14.50;;;5.05;;
50291;SDS011;36190;54.980;73.388;2023-04-24T08:53:25;26.83;;;6.72;;
50291;SDS011;36190;54.980;73.388;2023-04-24T08:55:54;28.40;;;5.68;;
50291;SDS011;36190;54.980;73.388;2023-04-24T08:58:23;13.27;;;6.20;;
50291;SDS011;36190;54.980;73.388;2023-04-24T09:00:53;15.80;;;4.90;;
50291;SDS011;36190;54.980;73.388;2023-04-24T09:03:22;10.35;;;3.75;;
50291;SDS011;36190;54.980;73.388;2023-04-24T09:05:51;11.57;;;3.95;;
50291;SDS011;36190;54.980;73.388;2023-04-24T09:08:22;7.10;;;3.15;;
50291;SDS011;36190;54.980;73.388;2023-04-24T09:10:51;13.23;;;3.55;;
50291;SDS011;36190;54.980;73.388;2023-04-24T09:13:19;7.50;;;3.25;;
50291;SDS011;36190;54.980;73.388;2023-04-24T09:15:47;9.70;;;3.70;;
50291;SDS011;36190;54.980;73.388;2023-04-24T09:18:14;7.65;;;3.25;;
50291;SDS011;36190;54.980;73.388;2023-04-24T09:20:59;11.38;;;3.25;;
50291;SDS011;36190;54.980;73.388;2023-04-24T09:23:28;11.07;;;3.45;;
50291;SDS011;36190;54.980;73.388;2023-04-24T09:25:56;9.00;;;3.20;;
50291;SDS011;36190;54.980;73.388;2023-04-24T09:28:25;10.10;;;2.92;;
50291;SDS011;36190;54.980;73.388;2023-04-24T09:31:03;6.15;;;2.70;;
50291;SDS011;36190;54.980;73.388;2023-04-24T09:33:32;8.30;;;2.95;;
50291;SDS011;36190;54.980;73.388;2023-04-24T09:36:01;14.45;;;3.28;;
50291;SDS011;36190;54.980;73.388;2023-04-24T09:38:33;8.95;;;3.15;;
50291;SDS011;36190;54.980;73.388;2023-04-24T09:41:01;10.07;;;3.22;;
50291;SDS011;36190;54.980;73.388;2023-04-24T09:43:29;10.80;;;3.65;;
50291;SDS011;36190;54.980;73.388;2023-04-24T09:45:57;6.88;;;2.92;;
50291;SDS011;36190;54.980;73.388;2023-04-24T09:48:32;12.10;;;3.70;;
50291;SDS011;36190;54.980;73.388;2023-04-24T09:51:03;8.52;;;2.83;;
50291;SDS011;36190;54.980;73.388;2023-04-24T09:53:32;11.35;;;3.60;;
50291;SDS011;36190;54.980;73.388;2023-04-24T09:56:02;18.90;;;4.40;;
50291;SDS011;36190;54.980;73.388;2023-04-24T09:58:30;23.83;;;5.15;;
50291;SDS011;36190;54.980;73.388;2023-04-24T10:00:57;13.02;;;3.17;;
50291;SDS011;36190;54.980;73.388;2023-04-24T10:03:25;14.73;;;3.65;;
50291;SDS011;36190;54.980;73.388;2023-04-24T10:05:58;14.20;;;3.50;;
50291;SDS011;36190;54.980;73.388;2023-04-24T10:08:27;10.52;;;3.40;;
50291;SDS011;36190;54.980;73.388;2023-04-24T10:11:00;10.30;;;3.45;;
50291;SDS011;36190;54.980;73.388;2023-04-24T10:13:28;8.75;;;2.75;;
50291;SDS011;36190;54.980;73.388;2023-04-24T10:15:57;17.80;;;3.78;;
50291;SDS011;36190;54.980;73.388;2023-04-24T10:18:27;10.15;;;2.80;;
50291;SDS011;36190;54.980;73.388;2023-04-24T10:20:55;10.40;;;2.30;;
50291;SDS011;36190;54.980;73.388;2023-04-24T10:23:24;12.38;;;2.95;;
50291;SDS011;36190;54.980;73.388;2023-04-24T10:25:54;7.68;;;2.42;;
50291;SDS011;36190;54.980;73.388;2023-04-24T10:28:22;9.85;;;2.80;;
50291;SDS011;36190;54.980;73.388;2023-04-24T10:30:52;18.65;;;3.72;;
50291;SDS011;36190;54.980;73.388;2023-04-24T10:33:21;19.65;;;3.80;;
50291;SDS011;36190;54.980;73.388;2023-04-24T10:35:50;23.13;;;3.42;;
50291;SDS011;36190;54.980;73.388;2023-04-24T10:38:24;21.58;;;3.80;;
50291;SDS011;36190;54.980;73.388;2023-04-24T10:40:58;19.30;;;3.80;;
50291;SDS011;36190;54.980;73.388;2023-04-24T10:43:39;10.02;;;2.40;;
50291;SDS011;36190;54.980;73.388;2023-04-24T10:46:07;7.18;;;2.00;;
50291;SDS011;36190;54.980;73.388;2023-04-24T10:48:41;9.45;;;2.60;;
50291;SDS011;36190;54.980;73.388;2023-04-24T10:51:14;14.18;;;2.88;;
50291;SDS011;36190;54.980;73.388;2023-04-24T10:53:41;6.47;;;2.28;;
50291;SDS011;36190;54.980;73.388;2023-04-24T10:56:10;4.72;;;2.13;;
50291;SDS011;36190;54.980;73.388;2023-04-24T10:58:39;7.72;;;2.40;;
50291;SDS011;36190;54.980;73.388;2023-04-24T11:01:11;4.50;;;2.28;;
50291;SDS011;36190;54.980;73.388;2023-04-24T11:03:51;5.63;;;2.17;;
50291;SDS011;36190;54.980;73.388;2023-04-24T11:06:28;7.75;;;2.20;;
50291;SDS011;36190;54.980;73.388;2023-04-24T11:08:59;8.68;;;2.58;;
50291;SDS011;36190;54.980;73.388;2023-04-24T11:11:32;6.30;;;2.28;;
50291;SDS011;36190;54.980;73.388;2023-04-24T11:14:04;8.65;;;2.40;;
50291;SDS011;36190;54.980;73.388;2023-04-24T11:16:33;5.78;;;2.10;;
50291;SDS011;36190;54.980;73.388;2023-04-24T11:19:04;3.38;;;2.22;;
50291;SDS011;36190;54.980;73.388;2023-04-24T11:21:42;9.55;;;2.53;;
50291;SDS011;36190;54.980;73.388;2023-04-24T11:24:30;6.07;;;2.30;;
50291;SDS011;36190;54.980;73.388;2023-04-24T11:27:05;6.75;;;2.40;;
50291;SDS011;36190;54.980;73.388;2023-04-24T11:29:40;11.40;;;2.90;;
50291;SDS011;36190;54.980;73.388;2023-04-24T11:32:18;14.20;;;2.92;;
50291;SDS011;36190;54.980;73.388;2023-04-24T11:34:51;14.20;;;3.08;;
50291;SDS011;36190;54.980;73.388;2023-04-24T11:37:19;10.88;;;2.90;;
50291;SDS011;36190;54.980;73.388;2023-04-24T11:39:47;13.75;;;3.15;;
50291;SDS011;36190;54.980;73.388;2023-04-24T11:42:19;12.48;;;2.97;;
50291;SDS011;36190;54.980;73.388;2023-04-24T11:44:48;5.53;;;2.30;;
50291;SDS011;36190;54.980;73.388;2023-04-24T11:47:16;13.48;;;3.25;;
50291;SDS011;36190;54.980;73.388;2023-04-24T11:49:43;24.65;;;4.97;;
50291;SDS011;36190;54.980;73.388;2023-04-24T11:52:15;22.63;;;3.72;;
50291;SDS011;36190;54.980;73.388;2023-04-24T11:54:47;17.92;;;3.92;;
50291;SDS011;36190;54.980;73.388;2023-04-24T11:57:15;13.48;;;3.40;;
50291;SDS011;36190;54.980;73.388;2023-04-24T11:59:44;16.70;;;3.67;;
50291;SDS011;36190;54.980;73.388;2023-04-24T12:02:19;11.70;;;3.33;;
50291;SDS011;36190;54.980;73.388;2023-04-24T12:04:48;13.13;;;2.95;;
50291;SDS011;36190;54.980;73.388;2023-04-24T12:07:16;11.05;;;3.20;;
50291;SDS011;36190;54.980;73.388;2023-04-24T12:09:44;11.40;;;3.10;;
50291;SDS011;36190;54.980;73.388;2023-04-24T12:12:12;8.85;;;3.00;;
50291;SDS011;36190;54.980;73.388;2023-04-24T12:14:47;11.27;;;2.60;;
50291;SDS011;36190;54.980;73.388;2023-04-24T12:17:15;9.35;;;2.50;;
50291;SDS011;36190;54.980;73.388;2023-04-24T12:19:46;7.88;;;2.80;;
50291;SDS011;36190;54.980;73.388;2023-04-24T12:22:14;6.78;;;2.50;;
50291;SDS011;36190;54.980;73.388;2023-04-24T12:24:58;5.97;;;2.40;;
50291;SDS011;36190;54.980;73.388;2023-04-24T12:27:29;6.75;;;2.38;;
50291;SDS011;36190;54.980;73.388;2023-04-24T12:29:59;5.57;;;2.05;;
50291;SDS011;36190;54.980;73.388;2023-04-24T12:32:28;6.88;;;2.60;;
50291;SDS011;36190;54.980;73.388;2023-04-24T12:34:55;8.52;;;2.70;;
50291;SDS011;36190;54.980;73.388;2023-04-24T12:37:23;11.77;;;2.45;;
50291;SDS011;36190;54.980;73.388;2023-04-24T12:39:58;13.23;;;3.05;;
50291;SDS011;36190;54.980;73.388;2023-04-24T12:42:26;5.47;;;2.30;;
50291;SDS011;36190;54.980;73.388;2023-04-24T12:44:59;6.63;;;2.20;;
50291;SDS011;36190;54.980;73.388;2023-04-24T12:47:29;10.25;;;2.42;;
50291;SDS011;36190;54.980;73.388;2023-04-24T12:49:58;9.60;;;2.50;;
50291;SDS011;36190;54.980;73.388;2023-04-24T12:52:26;13.85;;;2.60;;
50291;SDS011;36190;54.980;73.388;2023-04-24T12:54:55;6.45;;;2.40;;
50291;SDS011;36190;54.980;73.388;2023-04-24T12:57:24;9.43;;;2.65;;
50291;SDS011;36190;54.980;73.388;2023-04-24T12:59:53;7.28;;;2.58;;
50291;SDS011;36190;54.980;73.388;2023-04-24T13:02:23;6.22;;;1.98;;
50291;SDS011;36190;54.980;73.388;2023-04-24T13:04:52;7.63;;;2.38;;
50291;SDS011;36190;54.980;73.388;2023-04-24T13:07:19;12.48;;;2.55;;
50291;SDS011;36190;54.980;73.388;2023-04-24T13:09:48;17.67;;;2.40;;
50291;SDS011;36190;54.980;73.388;2023-04-24T13:12:16;5.60;;;2.05;;
50291;SDS011;36190;54.980;73.388;2023-04-24T13:14:43;7.43;;;2.20;;
50291;SDS011;36190;54.980;73.388;2023-04-24T13:17:11;12.45;;;3.05;;
50291;SDS011;36190;54.980;73.388;2023-04-24T13:19:41;6.18;;;2.38;;
50291;SDS011;36190;54.980;73.388;2023-04-24T13:22:10;8.18;;;2.45;;
50291;SDS011;36190;54.980;73.388;2023-04-24T13:24:39;10.05;;;2.60;;
50291;SDS011;36190;54.980;73.388;2023-04-24T13:27:07;5.90;;;2.60;;
50291;SDS011;36190;54.980;73.388;2023-04-24T13:29:35;9.60;;;2.70;;
50291;SDS011;36190;54.980;73.388;2023-04-24T13:32:02;4.70;;;2.22;;
50291;SDS011;36190;54.980;73.388;2023-04-24T13:34:30;9.43;;;2.90;;
50291;SDS011;36190;54.980;73.388;2023-04-24T13:37:01;11.70;;;3.20;;
50291;SDS011;36190;54.980;73.388;2023-04-24T13:39:29;7.68;;;2.35;;
50291;SDS011;36190;54.980;73.388;2023-04-24T13:41:57;9.68;;;2.70;;
50291;SDS011;36190;54.980;73.388;2023-04-24T13:44:25;13.90;;;2.60;;
50291;SDS011;36190;54.980;73.388;2023-04-24T13:46:53;10.50;;;2.90;;
50291;SDS011;36190;54.980;73.388;2023-04-24T13:49:22;10.95;;;2.75;;
50291;SDS011;36190;54.980;73.388;2023-04-24T13:51:51;8.60;;;2.50;;
50291;SDS011;36190;54.980;73.388;2023-04-24T13:54:21;6.97;;;2.50;;
50291;SDS011;36190;54.980;73.388;2023-04-24T13:56:50;5.65;;;2.40;;
50291;SDS011;36190;54.980;73.388;2023-04-24T13:59:18;7.38;;;2.70;;
50291;SDS011;36190;54.980;73.388;2023-04-24T14:01:46;10.45;;;2.70;;
50291;SDS011;36190;54.980;73.388;2023-04-24T14:04:14;11.93;;;3.38;;
50291;SDS011;36190;54.980;73.388;2023-04-24T14:09:55;11.43;;;2.70;;
50291;SDS011;36190;54.980;73.388;2023-04-24T14:12:22;9.50;;;2.58;;
50291;SDS011;36190;54.980;73.388;2023-04-24T14:14:51;10.80;;;3.17;;
50291;SDS011;36190;54.980;73.388;2023-04-24T14:17:18;8.82;;;2.22;;
50291;SDS011;36190;54.980;73.388;2023-04-24T14:19:46;6.00;;;2.20;;
50291;SDS011;36190;54.980;73.388;2023-04-24T14:22:14;7.47;;;2.80;;
50291;SDS011;36190;54.980;73.388;2023-04-24T14:24:41;7.05;;;2.70;;
50291;SDS011;36190;54.980;73.388;2023-04-24T14:27:10;12.98;;;3.28;;
50291;SDS011;36190;54.980;73.388;2023-04-24T14:29:38;8.07;;;2.58;;
50291;SDS011;36190;54.980;73.388;2023-04-24T14:32:06;9.65;;;3.05;;
50291;SDS011;36190;54.980;73.388;2023-04-24T14:34:34;5.40;;;2.35;;
50291;SDS011;36190;54.980;73.388;2023-04-24T14:37:01;6.50;;;2.60;;